Station Historical Data
Daily Summary for November 6, 2017 Units:  English    Metric   Both
« Previous Day
Next Day »
Daily Weekly Monthly Yearly Custom
  High: Low: Average:
Temperature: 60.1 °F 36.1 °F 46.5 °F
Dew Point: 56.8 °F 29.9 °F 39.8 °F
Humidity: 91% 59% 78%
Wind Speed: 12.0mph 0.0mph 2.6mph
Wind Gust: 15.0mph - -
Wind- - WNW
Pressure: 30.26 in 29.75 in -
Precipitation: 0.00 in    
Historical Graphs
 
 
Tabular Data for November 6, 2017
Time Temperature Dew Point Pressure Wind Wind Speed Wind Gust Humidity Rainfall Rate (Hourly)
00:04 59.3 °F 56.4 °F 29.75 in SSW 4.0 mph 7.0 mph 90% 0.05 in
00:09 59.4 °F 56.5 °F 29.75 in SSW 2.0 mph 8.0 mph 90% 0.05 in
00:14 59.4 °F 56.5 °F 29.75 in SSW 6.0 mph 10.0 mph 90% 0.05 in
00:19 59.6 °F 56.7 °F 29.75 in SSW 5.0 mph 10.0 mph 90% 0.05 in
00:24 59.6 °F 56.7 °F 29.75 in SSW 5.0 mph 10.0 mph 90% 0.04 in
00:29 59.8 °F 56.6 °F 29.75 in SSW 4.0 mph 8.0 mph 89% 0.01 in
00:34 59.8 °F 56.6 °F 29.75 in SW 4.0 mph 7.0 mph 89% 0.01 in
00:39 59.9 °F 56.6 °F 29.75 in SW 4.0 mph 7.0 mph 89% 0.01 in
00:44 60.0 °F 56.7 °F 29.75 in SSW 4.0 mph 10.0 mph 89% 0.01 in
00:49 60.0 °F 56.7 °F 29.75 in SW 4.0 mph 10.0 mph 89% 0.00 in
00:54 60.1 °F 56.8 °F 29.75 in SSW 4.0 mph 12.0 mph 89% 0.00 in
00:59 60.1 °F 56.5 °F 29.75 in SSW 3.0 mph 7.0 mph 88% 0.00 in
01:04 60.1 °F 56.5 °F 29.75 in WSW 7.0 mph 10.0 mph 88% 0.00 in
01:09 60.1 °F 56.5 °F 29.75 in SW 2.0 mph 8.0 mph 88% 0.01 in
01:14 60.0 °F 56.4 °F 29.75 in SW 6.0 mph 9.0 mph 88% 0.01 in
01:19 59.9 °F 56.3 °F 29.75 in SW 4.0 mph 7.0 mph 88% 0.01 in
01:24 59.8 °F 56.2 °F 29.75 in WSW 4.0 mph 9.0 mph 88% 0.02 in
01:29 59.7 °F 56.1 °F 29.76 in WSW 4.0 mph 9.0 mph 88% 0.02 in
01:34 59.6 °F 56.4 °F 29.76 in West 4.0 mph 7.0 mph 89% 0.02 in
01:39 59.5 °F 56.3 °F 29.76 in WSW 4.0 mph 8.0 mph 89% 0.03 in
01:44 59.5 °F 56.3 °F 29.76 in WSW 4.0 mph 9.0 mph 89% 0.04 in
01:49 59.3 °F 56.1 °F 29.76 in SW 2.0 mph 8.0 mph 89% 0.04 in
01:54 59.2 °F 56.0 °F 29.76 in WSW 2.0 mph 6.0 mph 89% 0.05 in
01:59 59.2 °F 56.3 °F 29.76 in WSW 3.0 mph 7.0 mph 90% 0.06 in
02:04 59.1 °F 56.2 °F 29.77 in SW 6.0 mph 12.0 mph 90% 0.07 in
02:09 59.0 °F 56.1 °F 29.77 in WSW 4.0 mph 11.0 mph 90% 0.06 in
02:14 58.3 °F 55.1 °F 29.79 in West 4.0 mph 12.0 mph 89% 0.07 in
02:19 56.9 °F 53.4 °F 29.79 in NW 4.0 mph 12.0 mph 88% 0.07 in
02:24 55.5 °F 52.0 °F 29.80 in NNW 3.0 mph 14.0 mph 88% 0.07 in
02:29 54.9 °F 51.4 °F 29.80 in WNW 4.0 mph 7.0 mph 88% 0.07 in
02:34 54.5 °F 51.3 °F 29.80 in NW 3.0 mph 9.0 mph 89% 0.07 in
02:39 54.2 °F 51.0 °F 29.80 in NW 4.0 mph 11.0 mph 89% 0.06 in
02:44 53.8 °F 50.6 °F 29.80 in NW 4.0 mph 11.0 mph 89% 0.06 in
02:49 53.5 °F 50.3 °F 29.80 in NW 4.0 mph 8.0 mph 89% 0.06 in
02:54 53.3 °F 50.1 °F 29.80 in NW 3.0 mph 8.0 mph 89% 0.05 in
02:59 53.1 °F 49.9 °F 29.80 in NW 8.0 mph 9.0 mph 89% 0.05 in
03:04 52.9 °F 50.0 °F 29.80 in NW 4.0 mph 9.0 mph 90% 0.04 in
03:09 52.8 °F 49.9 °F 29.80 in WNW 2.0 mph 8.0 mph 90% 0.04 in
03:14 52.7 °F 49.8 °F 29.80 in NNW 2.0 mph 5.0 mph 90% 0.03 in
03:19 52.5 °F 49.7 °F 29.81 in NW 1.0 mph 6.0 mph 90% 0.03 in
03:24 52.3 °F 49.5 °F 29.81 in WNW 2.0 mph 7.0 mph 90% 0.02 in
03:29 52.2 °F 49.4 °F 29.81 in North 2.0 mph 6.0 mph 90% 0.02 in
03:34 52.1 °F 49.3 °F 29.81 in Calm   6.0 mph 90% 0.02 in
03:39 52.0 °F 49.2 °F 29.82 in NW 1.0 mph 6.0 mph 90% 0.02 in
03:44 51.9 °F 49.1 °F 29.82 in NW 1.0 mph 4.0 mph 90% 0.01 in
03:49 51.9 °F 49.1 °F 29.83 in WNW 2.0 mph 5.0 mph 90% 0.01 in
03:54 51.8 °F 49.0 °F 29.82 in WNW 1.0 mph 3.0 mph 90% 0.03 in
03:59 51.7 °F 48.9 °F 29.83 in Calm   5.0 mph 90% 0.02 in
04:04 51.6 °F 48.8 °F 29.83 in Calm   4.0 mph 90% 0.02 in
04:09 51.5 °F 48.7 °F 29.83 in WNW 3.0 mph 7.0 mph 90% 0.02 in
04:14 51.2 °F 48.4 °F 29.84 in WNW 4.0 mph 7.0 mph 90% 0.02 in
04:19 51.0 °F 48.2 °F 29.84 in WNW 3.0 mph 7.0 mph 90% 0.03 in
04:24 51.0 °F 48.2 °F 29.84 in WNW 2.0 mph 6.0 mph 90% 0.03 in
04:29 50.9 °F 48.1 °F 29.84 in NW 1.0 mph 4.0 mph 90% 0.03 in
04:34 50.8 °F 48.0 °F 29.85 in Calm   3.0 mph 90% 0.03 in
04:39 50.8 °F 48.0 °F 29.85 in Calm   2.0 mph 90% 0.03 in
04:44 50.8 °F 48.0 °F 29.85 in Calm   2.0 mph 90% 0.04 in
04:49 50.8 °F 48.3 °F 29.85 in Calm   3.0 mph 91% 0.04 in
04:54 50.8 °F 48.3 °F 29.86 in WNW 1.0 mph 5.0 mph 91% 0.02 in
04:59 50.7 °F 48.2 °F 29.86 in NNW 2.0 mph 7.0 mph 91% 0.02 in
05:04 50.6 °F 48.1 °F 29.86 in WNW 8.0 mph 11.0 mph 91% 0.03 in
05:09 50.5 °F 48.0 °F 29.87 in West 4.0 mph 8.0 mph 91% 0.03 in
05:14 50.3 °F 47.8 °F 29.87 in West 4.0 mph 8.0 mph 91% 0.03 in
05:19 50.2 °F 47.7 °F 29.88 in WNW 4.0 mph 8.0 mph 91% 0.02 in
05:24 50.1 °F 47.6 °F 29.88 in WNW 3.0 mph 7.0 mph 91% 0.02 in
05:29 49.9 °F 47.4 °F 29.88 in NNW 3.0 mph 10.0 mph 91% 0.02 in
05:34 49.8 °F 47.3 °F 29.88 in NW 1.0 mph 7.0 mph 91% 0.02 in
05:39 49.7 °F 47.2 °F 29.89 in WNW 1.0 mph 10.0 mph 91% 0.02 in
05:44 49.6 °F 47.1 °F 29.89 in NW 1.0 mph 5.0 mph 91% 0.01 in
05:49 49.6 °F 47.1 °F 29.89 in NW 2.0 mph 5.0 mph 91% 0.01 in
05:54 49.6 °F 47.1 °F 29.89 in NW 3.0 mph 10.0 mph 91% 0.02 in
05:59 49.3 °F 46.5 °F 29.90 in NW 4.0 mph 10.0 mph 90% 0.02 in
06:04 48.6 °F 45.8 °F 29.90 in NW 4.0 mph 13.0 mph 90% 0.01 in
06:09 47.9 °F 45.1 °F 29.90 in NW 5.0 mph 13.0 mph 90% 0.01 in
06:14 47.5 °F 44.7 °F 29.91 in NW 6.0 mph 9.0 mph 90% 0.01 in
06:19 47.2 °F 44.4 °F 29.91 in NW 3.0 mph 9.0 mph 90% 0.01 in
06:24 47.0 °F 44.2 °F 29.91 in NW 4.0 mph 10.0 mph 90% 0.01 in
06:29 46.9 °F 44.1 °F 29.91 in NW 4.0 mph 7.0 mph 90% 0.01 in
06:34 46.9 °F 44.1 °F 29.92 in NNW 1.0 mph 7.0 mph 90% 0.01 in
06:39 46.7 °F 43.9 °F 29.92 in Calm   8.0 mph 90% 0.01 in
06:44 46.7 °F 43.9 °F 29.92 in NW 3.0 mph 6.0 mph 90% 0.02 in
06:49 46.7 °F 43.9 °F 29.92 in NW 1.0 mph 8.0 mph 90% 0.02 in
06:54 46.6 °F 43.8 °F 29.93 in NW 3.0 mph 8.0 mph 90% 0.01 in
06:59 46.6 °F 43.8 °F 29.93 in NW 3.0 mph 7.0 mph 90% 0.01 in
07:04 46.6 °F 43.8 °F 29.93 in NW 3.0 mph 7.0 mph 90% 0.01 in
07:09 46.5 °F 43.7 °F 29.94 in NW 3.0 mph 8.0 mph 90% 0.01 in
07:14 46.5 °F 43.7 °F 29.94 in NW 3.0 mph 9.0 mph 90% 0.01 in
07:19 46.5 °F 43.7 °F 29.94 in NW 4.0 mph 9.0 mph 90% 0.01 in
07:24 46.5 °F 43.7 °F 29.94 in NW 3.0 mph 7.0 mph 90% 0.01 in
07:29 46.5 °F 43.7 °F 29.95 in NW 3.0 mph 9.0 mph 90% 0.01 in
07:34 46.2 °F 43.4 °F 29.95 in NNW 4.0 mph 10.0 mph 90% 0.01 in
07:39 45.9 °F 43.1 °F 29.96 in NNW 6.0 mph 9.0 mph 90% 0.01 in
07:44 45.3 °F 42.5 °F 29.97 in NNE 3.0 mph 10.0 mph 90% 0.00 in
07:49 44.9 °F 42.1 °F 29.97 in NNW 3.0 mph 8.0 mph 90% 0.00 in
07:54 44.7 °F 41.9 °F 29.97 in NNW 2.0 mph 10.0 mph 90% 0.00 in
07:59 44.7 °F 41.9 °F 29.97 in NNW 3.0 mph 10.0 mph 90% 0.00 in
08:04 44.6 °F 41.8 °F 29.98 in NNW 3.0 mph 9.0 mph 90% 0.01 in
08:09 44.6 °F 41.8 °F 29.98 in NNW 4.0 mph 9.0 mph 90% 0.01 in
08:14 44.4 °F 41.7 °F 29.98 in NNW 7.0 mph 8.0 mph 90% 0.01 in
08:19 44.4 °F 41.7 °F 29.98 in NW 2.0 mph 10.0 mph 90% 0.01 in
08:24 44.4 °F 41.9 °F 29.99 in NNW 2.0 mph 3.0 mph 91% 0.01 in
08:29 44.4 °F 41.9 °F 29.99 in Calm   4.0 mph 91% 0.01 in
08:34 44.5 °F 42.0 °F 30.00 in NNW 1.0 mph 4.0 mph 91% 0.01 in
08:39 44.4 °F 41.9 °F 30.00 in NW 2.0 mph 6.0 mph 91% 0.01 in
08:44 44.4 °F 41.9 °F 30.00 in NW 3.0 mph 7.0 mph 91% 0.01 in
08:49 44.5 °F 42.0 °F 30.00 in NW 2.0 mph 7.0 mph 91% 0.01 in
08:54 44.4 °F 41.7 °F 30.00 in NNW 3.0 mph 13.0 mph 90% 0.01 in
08:59 44.2 °F 41.5 °F 30.00 in NW 6.0 mph 9.0 mph 90% 0.01 in
09:04 44.1 °F 41.4 °F 30.00 in NNW 4.0 mph 9.0 mph 90% 0.00 in
09:09 44.2 °F 41.5 °F 30.00 in NNW 4.0 mph 9.0 mph 90% 0.00 in
09:14 44.1 °F 41.4 °F 30.01 in NNW 4.0 mph 9.0 mph 90% 0.00 in
09:19 44.1 °F 41.1 °F 30.01 in NNW 4.0 mph 9.0 mph 89% 0.00 in
09:24 44.1 °F 41.1 °F 30.02 in NNW 2.0 mph 9.0 mph 89% 0.00 in
09:29 44.1 °F 41.1 °F 30.02 in NNW 1.0 mph 6.0 mph 89% 0.00 in
09:34 44.3 °F 41.3 °F 30.02 in WNW 3.0 mph 11.0 mph 89% 0.00 in
09:39 44.1 °F 40.8 °F 30.02 in NNW 2.0 mph 10.0 mph 88% 0.00 in
09:44 44.0 °F 40.7 °F 30.03 in NNW 4.0 mph 10.0 mph 88% 0.00 in
09:49 44.0 °F 40.4 °F 30.03 in NNW 3.0 mph 10.0 mph 87% 0.00 in
09:54 44.0 °F 40.4 °F 30.03 in NNW 3.0 mph 9.0 mph 87% 0.00 in
09:59 44.1 °F 40.2 °F 30.04 in NNW 3.0 mph 9.0 mph 86% 0.00 in
10:04 44.1 °F 40.2 °F 30.04 in NW 3.0 mph 10.0 mph 86% 0.00 in
10:09 44.3 °F 40.1 °F 30.05 in NNW 2.0 mph 7.0 mph 85% 0.00 in
10:19 44.3 °F 39.5 °F 30.04 in NW 4.0 mph 11.0 mph 83% 0.00 in
10:24 44.3 °F 39.2 °F 30.05 in NNW 5.0 mph 12.0 mph 82% 0.00 in
10:29 44.6 °F 39.1 °F 30.05 in NW 2.0 mph 11.0 mph 81% 0.00 in
10:34 44.7 °F 38.9 °F 30.05 in NNW 3.0 mph 13.0 mph 80% 0.00 in
10:39 44.8 °F 38.7 °F 30.05 in NW 12.0 mph 15.0 mph 79% 0.00 in
10:44 44.5 °F 37.7 °F 30.05 in NNW 5.0 mph 12.0 mph 77% 0.00 in
10:49 44.5 °F 37.7 °F 30.06 in NW 6.0 mph 12.0 mph 77% 0.00 in
10:54 44.6 °F 37.5 °F 30.06 in NW 5.0 mph 11.0 mph 76% 0.00 in
10:59 44.7 °F 36.9 °F 30.06 in NW 5.0 mph 14.0 mph 74% 0.00 in
11:04 44.8 °F 36.7 °F 30.06 in NNW 4.0 mph 14.0 mph 73% 0.00 in
11:09 45.2 °F 37.1 °F 30.06 in NW 3.0 mph 11.0 mph 73% 0.00 in
11:14 45.5 °F 37.3 °F 30.07 in West 2.0 mph 6.0 mph 73% 0.00 in
11:19 45.4 °F 36.9 °F 30.07 in NNW 3.0 mph 11.0 mph 72% 0.00 in
11:24 45.8 °F 37.6 °F 30.07 in NW 5.0 mph 11.0 mph 73% 0.00 in
11:29 45.9 °F 37.4 °F 30.07 in NW 4.0 mph 9.0 mph 72% 0.00 in
11:34 45.9 °F 37.0 °F 30.08 in West 2.0 mph 9.0 mph 71% 0.00 in
11:39 46.0 °F 37.1 °F 30.08 in NNW 2.0 mph 8.0 mph 71% 0.00 in
11:44 45.9 °F 37.0 °F 30.08 in WNW 3.0 mph 10.0 mph 71% 0.00 in
11:49 46.4 °F 37.5 °F 30.08 in NNE 3.0 mph 11.0 mph 71% 0.00 in
11:54 46.5 °F 37.6 °F 30.08 in NW 5.0 mph 11.0 mph 71% 0.00 in
11:59 46.0 °F 36.8 °F 30.08 in NW 5.0 mph 12.0 mph 70% 0.00 in
12:04 45.9 °F 36.3 °F 30.08 in NW 5.0 mph 12.0 mph 69% 0.00 in
12:09 45.6 °F 36.4 °F 30.09 in NW 5.0 mph 11.0 mph 70% 0.00 in
12:14 45.8 °F 35.8 °F 30.09 in NW 7.0 mph 11.0 mph 68% 0.00 in
12:19 46.0 °F 36.0 °F 30.08 in WSW 4.0 mph 11.0 mph 68% 0.00 in
12:24 46.8 °F 37.5 °F 30.08 in NW 3.0 mph 7.0 mph 70% 0.00 in
12:29 47.3 °F 36.9 °F 30.09 in WNW 4.0 mph 10.0 mph 67% 0.00 in
12:34 47.7 °F 36.5 °F 30.09 in NW 5.0 mph 10.0 mph 65% 0.00 in
12:39 48.6 °F 37.4 °F 30.09 in NNW 5.0 mph 10.0 mph 65% 0.00 in
12:44 47.5 °F 35.9 °F 30.10 in NW 8.0 mph 12.0 mph 64% 0.00 in
12:49 47.4 °F 37.0 °F 30.10 in Calm   12.0 mph 67% 0.00 in
12:54 47.5 °F 35.9 °F 30.10 in WNW 10.0 mph 11.0 mph 64% 0.00 in
12:59 47.0 °F 35.4 °F 30.11 in West 6.0 mph 9.0 mph 64% 0.00 in
13:04 46.6 °F 35.5 °F 30.11 in NW 5.0 mph 10.0 mph 65% 0.00 in
13:09 46.4 °F 35.7 °F 30.11 in NW 4.0 mph 9.0 mph 66% 0.00 in
13:14 46.7 °F 36.7 °F 30.11 in NW 4.0 mph 9.0 mph 68% 0.00 in
13:19 47.0 °F 36.6 °F 30.11 in NW 3.0 mph 8.0 mph 67% 0.00 in
13:24 46.3 °F 35.2 °F 30.11 in NW 3.0 mph 8.0 mph 65% 0.00 in
13:29 46.3 °F 35.6 °F 30.11 in NNW 3.0 mph 8.0 mph 66% 0.00 in
13:34 47.0 °F 35.8 °F 30.11 in WNW 4.0 mph 10.0 mph 65% 0.00 in
13:39 47.3 °F 35.7 °F 30.11 in NW 6.0 mph 10.0 mph 64% 0.00 in
13:44 47.1 °F 35.9 °F 30.11 in NNW 3.0 mph 11.0 mph 65% 0.00 in
13:49 47.1 °F 36.3 °F 30.11 in NNW 5.0 mph 8.0 mph 66% 0.00 in
13:54 46.7 °F 36.3 °F 30.12 in NW 3.0 mph 10.0 mph 67% 0.00 in
13:59 47.1 °F 36.3 °F 30.11 in North 5.0 mph 8.0 mph 66% 0.00 in
14:04 46.4 °F 35.7 °F 30.12 in NW 3.0 mph 8.0 mph 66% 0.00 in
14:09 45.9 °F 35.2 °F 30.12 in NW 3.0 mph 7.0 mph 66% 0.00 in
14:14 46.6 °F 35.5 °F 30.12 in NW 4.0 mph 10.0 mph 65% 0.00 in
14:19 48.0 °F 36.4 °F 30.12 in NW 3.0 mph 10.0 mph 64% 0.00 in
14:24 47.0 °F 35.4 °F 30.12 in NW 3.0 mph 7.0 mph 64% 0.00 in
14:29 46.1 °F 35.0 °F 30.12 in North 4.0 mph 8.0 mph 65% 0.00 in
14:34 45.4 °F 34.7 °F 30.12 in North 1.0 mph 8.0 mph 66% 0.00 in
14:39 46.7 °F 35.9 °F 30.12 in NW 3.0 mph 8.0 mph 66% 0.00 in
14:44 47.8 °F 35.8 °F 30.13 in NW 4.0 mph 8.0 mph 63% 0.00 in
14:49 47.9 °F 35.5 °F 30.13 in NNW 4.0 mph 10.0 mph 62% 0.00 in
14:54 47.8 °F 35.8 °F 30.13 in Calm   7.0 mph 63% 0.00 in
14:59 47.8 °F 35.4 °F 30.13 in NNW 2.0 mph 6.0 mph 62% 0.00 in
15:04 47.5 °F 35.1 °F 30.14 in NNW 3.0 mph 8.0 mph 62% 0.00 in
15:09 47.5 °F 34.7 °F 30.14 in NW 3.0 mph 8.0 mph 61% 0.00 in
15:14 46.5 °F 33.8 °F 30.14 in NW 3.0 mph 8.0 mph 61% 0.00 in
15:19 45.9 °F 33.2 °F 30.15 in NNW 4.0 mph 9.0 mph 61% 0.00 in
15:24 46.0 °F 33.7 °F 30.15 in NNW 4.0 mph 9.0 mph 62% 0.00 in
15:29 46.8 °F 34.0 °F 30.15 in NNW 3.0 mph 7.0 mph 61% 0.00 in
15:34 47.0 °F 33.8 °F 30.15 in WNW 6.0 mph 9.0 mph 60% 0.00 in
15:39 47.0 °F 33.4 °F 30.15 in NNW 2.0 mph 9.0 mph 59% 0.00 in
15:44 46.7 °F 33.5 °F 30.15 in NW 4.0 mph 9.0 mph 60% 0.00 in
15:49 46.1 °F 33.8 °F 30.16 in NNW 4.0 mph 9.0 mph 62% 0.00 in
15:54 45.7 °F 33.0 °F 30.16 in NNW 4.0 mph 10.0 mph 61% 0.00 in
15:59 45.7 °F 33.4 °F 30.16 in NW 3.0 mph 9.0 mph 62% 0.00 in
16:04 45.6 °F 33.3 °F 30.16 in NNW 3.0 mph 9.0 mph 62% 0.00 in
16:09 45.2 °F 32.9 °F 30.16 in WNW 3.0 mph 5.0 mph 62% 0.00 in
16:14 44.8 °F 32.2 °F 30.16 in NNW 2.0 mph 6.0 mph 61% 0.00 in
16:19 44.6 °F 32.4 °F 30.17 in NW 3.0 mph 6.0 mph 62% 0.00 in
16:24 44.7 °F 32.5 °F 30.17 in NW 3.0 mph 7.0 mph 62% 0.00 in
16:29 44.6 °F 32.8 °F 30.17 in NW 3.0 mph 7.0 mph 63% 0.00 in
16:34 44.5 °F 32.7 °F 30.17 in NNW 2.0 mph 6.0 mph 63% 0.00 in
16:39 44.4 °F 33.4 °F 30.17 in NNW 2.0 mph 5.0 mph 65% 0.00 in
16:44 44.2 °F 33.6 °F 30.17 in Calm   5.0 mph 66% 0.00 in
16:49 44.1 °F 33.5 °F 30.18 in NW 2.0 mph 5.0 mph 66% 0.00 in
16:54 44.0 °F 33.4 °F 30.18 in NNW 1.0 mph 5.0 mph 66% 0.00 in
16:59 43.9 °F 33.3 °F 30.18 in NNW 2.0 mph 4.0 mph 66% 0.00 in
17:04 43.8 °F 33.6 °F 30.18 in NNW 1.0 mph 3.0 mph 67% 0.00 in
17:09 43.7 °F 33.5 °F 30.18 in Calm   4.0 mph 67% 0.00 in
17:14 43.6 °F 33.7 °F 30.18 in North 2.0 mph 2.0 mph 68% 0.00 in
17:19 43.5 °F 33.3 °F 30.19 in NNW 1.0 mph 3.0 mph 67% 0.00 in
17:24 43.5 °F 33.3 °F 30.19 in WNW 1.0 mph 4.0 mph 67% 0.00 in
17:29 43.5 °F 33.3 °F 30.19 in WNW 1.0 mph 4.0 mph 67% 0.00 in
17:34 43.5 °F 33.3 °F 30.19 in NNW 1.0 mph 4.0 mph 67% 0.00 in
17:39 43.5 °F 33.3 °F 30.20 in NNW 2.0 mph 7.0 mph 67% 0.00 in
17:44 43.5 °F 33.3 °F 30.20 in Calm   4.0 mph 67% 0.00 in
17:49 43.5 °F 33.6 °F 30.20 in Calm   2.0 mph 68% 0.00 in
17:54 43.4 °F 33.5 °F 30.21 in North 3.0 mph 4.0 mph 68% 0.00 in
17:59 43.4 °F 33.5 °F 30.21 in Calm   4.0 mph 68% 0.00 in
18:04 43.4 °F 33.5 °F 30.21 in North 2.0 mph 4.0 mph 68% 0.00 in
18:09 43.4 °F 33.5 °F 30.21 in NNE 2.0 mph 4.0 mph 68% 0.00 in
18:14 43.3 °F 33.8 °F 30.21 in NNE 1.0 mph 4.0 mph 69% 0.00 in
18:19 43.3 °F 33.8 °F 30.22 in North 2.0 mph 6.0 mph 69% 0.00 in
18:24 43.1 °F 33.3 °F 30.22 in North 2.0 mph 7.0 mph 68% 0.00 in
18:29 43.0 °F 33.2 °F 30.22 in North 3.0 mph 6.0 mph 68% 0.00 in
18:34 42.8 °F 33.0 °F 30.22 in NNW 2.0 mph 6.0 mph 68% 0.00 in
18:39 42.6 °F 32.8 °F 30.22 in Calm   4.0 mph 68% 0.00 in
18:44 42.4 °F 32.6 °F 30.23 in NNW 4.0 mph 5.0 mph 68% 0.00 in
18:49 42.4 °F 32.6 °F 30.23 in Calm   4.0 mph 68% 0.00 in
18:54 42.4 °F 32.9 °F 30.23 in NNW 2.0 mph 5.0 mph 69% 0.00 in
18:59 42.4 °F 33.3 °F 30.23 in NNW 1.0 mph 3.0 mph 70% 0.00 in
19:04 42.2 °F 32.8 °F 30.24 in Calm   4.0 mph 69% 0.00 in
19:09 42.2 °F 33.1 °F 30.24 in NNW 1.0 mph 4.0 mph 70% 0.00 in
19:14 42.2 °F 32.8 °F 30.24 in NW 1.0 mph 5.0 mph 69% 0.00 in
19:19 42.2 °F 32.8 °F 30.24 in NW 1.0 mph 5.0 mph 69% 0.00 in
19:24 42.1 °F 32.3 °F 30.24 in NNW 1.0 mph 5.0 mph 68% 0.00 in
19:29 42.0 °F 32.2 °F 30.24 in NNW 3.0 mph 6.0 mph 68% 0.00 in
19:34 42.0 °F 32.6 °F 30.24 in North 2.0 mph 6.0 mph 69% 0.00 in
19:39 41.9 °F 32.5 °F 30.24 in North 2.0 mph 6.0 mph 69% 0.00 in
19:44 41.8 °F 32.0 °F 30.24 in North 1.0 mph 8.0 mph 68% 0.00 in
19:49 41.7 °F 31.9 °F 30.24 in NNW 4.0 mph 6.0 mph 68% 0.00 in
19:54 41.6 °F 31.8 °F 30.24 in ENE 3.0 mph 6.0 mph 68% 0.00 in
19:59 41.6 °F 32.2 °F 30.24 in NNW 2.0 mph 8.0 mph 69% 0.00 in
20:04 41.5 °F 31.7 °F 30.24 in NW 2.0 mph 7.0 mph 68% 0.00 in
20:09 41.4 °F 31.6 °F 30.24 in NNW 1.0 mph 5.0 mph 68% 0.00 in
20:14 41.4 °F 31.6 °F 30.24 in NNW 2.0 mph 6.0 mph 68% 0.00 in
20:19 41.3 °F 31.5 °F 30.24 in NNW 2.0 mph 6.0 mph 68% 0.00 in
20:24 41.3 °F 31.5 °F 30.24 in NNW 2.0 mph 7.0 mph 68% 0.00 in
20:29 41.3 °F 31.5 °F 30.24 in NNW 2.0 mph 7.0 mph 68% 0.00 in
20:34 41.3 °F 31.5 °F 30.25 in NNW 2.0 mph 5.0 mph 68% 0.00 in
20:39 41.2 °F 31.4 °F 30.25 in NNW 2.0 mph 5.0 mph 68% 0.00 in
20:44 41.2 °F 31.4 °F 30.24 in NNW 2.0 mph 5.0 mph 68% 0.00 in
20:49 41.1 °F 31.3 °F 30.24 in Calm   4.0 mph 68% 0.00 in
20:54 41.0 °F 31.6 °F 30.24 in NNW 1.0 mph 4.0 mph 69% 0.00 in
20:59 40.9 °F 31.5 °F 30.24 in NNW 1.0 mph 4.0 mph 69% 0.00 in
21:04 40.7 °F 31.3 °F 30.24 in Calm   4.0 mph 69% 0.00 in
21:09 40.6 °F 31.2 °F 30.24 in North 1.0 mph 4.0 mph 69% 0.00 in
21:14 40.3 °F 30.9 °F 30.24 in Calm   3.0 mph 69% 0.00 in
21:19 39.9 °F 30.9 °F 30.24 in Calm   4.0 mph 70% 0.00 in
21:24 39.5 °F 30.5 °F 30.24 in Calm   3.0 mph 70% 0.00 in
21:29 39.2 °F 30.6 °F 30.24 in North 1.0 mph 4.0 mph 71% 0.00 in
21:34 38.8 °F 30.5 °F 30.24 in Calm   4.0 mph 72% 0.00 in
21:39 38.5 °F 30.3 °F 30.24 in Calm     72% 0.00 in
21:44 38.2 °F 30.3 °F 30.24 in Calm     73% 0.00 in
21:49 38.0 °F 30.4 °F 30.24 in Calm     74% 0.00 in
21:54 38.0 °F 30.4 °F 30.25 in Calm   3.0 mph 74% 0.00 in
21:59 38.0 °F 30.4 °F 30.25 in Calm   3.0 mph 74% 0.00 in
22:04 38.0 °F 30.4 °F 30.25 in Calm     74% 0.00 in
22:09 37.9 °F 30.4 °F 30.25 in Calm     74% 0.00 in
22:19 37.3 °F 30.1 °F 30.25 in Calm     75% 0.00 in
22:24 37.1 °F 29.9 °F 30.25 in Calm     75% 0.00 in
22:29 37.0 °F 30.1 °F 30.25 in Calm     76% 0.00 in
22:34 36.6 °F 30.1 °F 30.25 in Calm     77% 0.00 in
22:39 36.4 °F 30.2 °F 30.25 in Calm     78% 0.00 in
22:44 36.2 °F 30.3 °F 30.25 in Calm     79% 0.00 in
22:49 36.2 °F 30.3 °F 30.25 in Calm     79% 0.00 in
22:54 36.1 °F 30.5 °F 30.25 in Calm     80% 0.00 in
22:59 36.1 °F 30.5 °F 30.25 in Calm     80% 0.00 in
23:04 36.2 °F 30.9 °F 30.25 in Calm     81% 0.00 in
23:09 36.3 °F 31.0 °F 30.26 in Calm     81% 0.00 in
23:14 36.4 °F 31.1 °F 30.25 in Calm     81% 0.00 in
23:19 36.5 °F 31.2 °F 30.25 in Calm     81% 0.00 in
23:24 36.6 °F 31.3 °F 30.26 in Calm     81% 0.00 in
23:29 36.8 °F 31.8 °F 30.26 in Calm     82% 0.00 in
23:34 36.8 °F 31.8 °F 30.26 in Calm     82% 0.00 in
23:39 36.9 °F 31.9 °F 30.26 in Calm     82% 0.00 in
23:44 37.0 °F 32.0 °F 30.26 in Calm     82% 0.00 in
23:54 37.3 °F 32.6 °F 30.26 in Calm     83% 0.00 in
23:59 37.5 °F 32.5 °F 30.26 in Calm     82% 0.00 in
Buffalo, New York, USA
Compliments of Weather Underground - 2.5 mb